F/V Argentario — FGPE — position and weather

sailwx.info

Track history (hours):
 
Tides and Currents Weather Stations Pressure Air Temp Water Temp Dewpoint Dewpoint Depression Visibility Wind Speed Wind Dir Waves Ship Positions

F/V Argentario

Last reported at 2017-Nov-17 12:46 UTC. Time now 2017-Nov-20 19:14 UTC.
Position N 46°44' W 002°43'.

Length 22 m; draft 3.4 m.

Type: Fishing. MMSI: 228975000.

Date/timePositionNaut miles runAvg speedWind from/ knotsBaromVisibWave heightAir tempDewpointWater temp
2017-Nov-17 12:46N 46°44' W 002°43'2710.1
2017-Nov-17 10:05N 46°43' W 003°23'4 9.6
2017-Nov-17 09:41N 46°43' W 003°28'0 1.6
2017-Nov-17 09:26N 46°43' W 003°29'1 2.1
2017-Nov-17 08:52N 46°43' W 003°31'1 0.3
2017-Nov-17 06:50N 46°42' W 003°31'1 1.7
2017-Nov-17 06:03N 46°42' W 003°33'1 3.6
2017-Nov-17 05:53N 46°42' W 003°33'0 0.2
2017-Nov-17 05:28N 46°43' W 003°33'0 0.0
2017-Nov-17 04:23N 46°42' W 003°33'0 0.0
2017-Nov-17 03:46N 46°42' W 003°33'0 0.0
2017-Nov-17 03:29N 46°42' W 003°33'0 0.0
2017-Nov-17 03:00N 46°42' W 003°33'0 0.0
2017-Nov-17 02:28N 46°42' W 003°33'0 0.0
2017-Nov-17 01:55N 46°43' W 003°33'0 0.1
2017-Nov-17 01:29N 46°43' W 003°33'0 0.2
2017-Nov-17 00:59N 46°43' W 003°33'0 0.0
2017-Nov-17 00:29N 46°43' W 003°33'0 0.0
2017-Nov-16 22:04N 46°43' W 003°33'0 0.1
2017-Nov-16 22:00N 46°43' W 003°33'0 0.0
2017-Nov-16 21:30N 46°43' W 003°33'0 0.0
2017-Nov-16 20:48N 46°43' W 003°33'0 0.0
2017-Nov-16 20:00N 46°43' W 003°33'0 0.1
2017-Nov-16 19:28N 46°43' W 003°33'0 0.0
2017-Nov-16 18:50N 46°43' W 003°33'0 0.0
2017-Nov-16 18:20N 46°43' W 003°33'0 0.0
2017-Nov-16 18:00N 46°43' W 003°33'0 0.0
2017-Nov-16 16:44N 46°43' W 003°33'0 0.1
2017-Nov-16 16:28N 46°43' W 003°33'0 0.0
2017-Nov-16 15:33N 46°42' W 003°33'0 0.1
2017-Nov-16 15:27N 46°42' W 003°33'0 0.0
2017-Nov-16 15:00N 46°42' W 003°33'0 0.2
2017-Nov-16 14:30N 46°43' W 003°33'0 0.3
2017-Nov-16 13:15N 46°43' W 003°33'2 7.5
2017-Nov-16 13:00N 46°43' W 003°30'2 2.3
2017-Nov-16 12:18N 46°42' W 003°31'2 8.4
2017-Nov-16 12:01N 46°39' W 003°31'1 1.5
2017-Nov-16 11:29N 46°39' W 003°32'1 1.5
2017-Nov-16 10:57N 46°39' W 003°33'1 1.3
2017-Nov-16 10:29N 46°39' W 003°34'0 0.9
2017-Nov-16 10:00N 46°39' W 003°35'1 1.2
2017-Nov-16 09:29N 46°39' W 003°36'3 5.8
2017-Nov-16 08:59N 46°38' W 003°31'5 1.4
2017-Nov-16 05:11N 46°39' W 003°24'1 4.5
2017-Nov-16 04:52N 46°39' W 003°22'2 4.6
2017-Nov-16 04:28N 46°40' W 003°19'3 4.9
2017-Nov-16 03:45N 46°40' W 003°14'2 6.4
2017-Nov-16 03:28N 46°40' W 003°11'3 6.4
2017-Nov-16 02:57N 46°41' W 003°07'3 6.0
2017-Nov-16 02:30N 46°41' W 003°03'3 6.1
2017-Nov-16 02:00N 46°42' W 002°58'3 6.1
2017-Nov-16 01:30N 46°42' W 002°54'3 6.1
2017-Nov-16 01:00N 46°42' W 002°50'3 5.8
2017-Nov-16 00:31N 46°43' W 002°45'3 6.1
2017-Nov-16 00:00N 46°43' W 002°41'3 5.8
2017-Nov-15 23:30N 46°43' W 002°37'3 6.1
2017-Nov-15 23:00N 46°44' W 002°32'3 6.4
2017-Nov-15 22:31N 46°44' W 002°28'4 7.0
2017-Nov-15 22:01N 46°45' W 002°23'2 3.4
2017-Nov-15 21:30N 46°44' W 002°21'0 0.0
2017-Nov-15 21:01N 46°44' W 002°21'0 0.0
2017-Nov-15 20:29N 46°44' W 002°21'0 0.0
2017-Nov-15 19:56N 46°44' W 002°21'0 0.0
2017-Nov-15 19:29N 46°44' W 002°21'0 0.0
2017-Nov-15 19:01N 46°44' W 002°21'0 0.0
2017-Nov-15 18:30N 46°44' W 002°21'0 0.0
2017-Nov-15 16:58N 46°44' W 002°21'2 3.2
2017-Nov-15 16:29N 46°45' W 002°22'40 9.4
2017-Nov-15 12:15N 46°40' W 003°20'11 6.7
2017-Nov-15 10:41N 46°38' W 003°35'1 6.4
2017-Nov-15 10:28N 46°38' W 003°33'3 5.4
2017-Nov-15 10:00N 46°36' W 003°31'8 9.8
2017-Nov-15 09:14N 46°28' W 003°32'0 1.9
2017-Nov-15 09:00N 46°28' W 003°33'1 1.3
2017-Nov-15 08:13N 46°28' W 003°34'2 0.5
2017-Nov-15 04:42N 46°28' W 003°37'2 0.2
2017-Nov-14 20:59N 46°29' W 003°35'16 1.4
2017-Nov-14 09:33N 46°45' W 003°29'4 1.0
2017-Nov-14 06:00N 46°43' W 003°33'54 1.9
2017-Nov-13 01:29N 46°27' W 002°19'3 7.0
2017-Nov-13 01:00N 46°27' W 002°14'3 6.9
2017-Nov-13 00:31N 46°27' W 002°09'3 6.8
2017-Nov-13 00:01N 46°28' W 002°04'3 6.7
2017-Nov-12 23:30N 46°28' W 001°59'3 6.5
2017-Nov-12 23:01N 46°28' W 001°55'3 6.4
2017-Nov-12 22:31N 46°29' W 001°50'2 4.4
2017-Nov-12 22:00N 46°30' W 001°47'0 0.0
2017-Nov-12 21:31N 46°30' W 001°47'0 0.4
2017-Nov-12 21:01N 46°30' W 001°47'0 0.6
2017-Nov-12 20:30N 46°30' W 001°48'3 6.9
2017-Nov-12 20:00N 46°28' W 001°52'510.0
2017-Nov-12 19:30N 46°28' W 001°60'5 9.9
2017-Nov-12 19:00N 46°28' W 002°07'5 9.8
2017-Nov-12 18:30N 46°28' W 002°14'38 1.4
2017-Nov-11 15:47N 46°37' W 003°07'0 0.0
2017-Nov-11 15:29N 46°37' W 003°07'4 5.2
2017-Nov-11 14:46N 46°40' W 003°09'1 0.5
2017-Nov-11 13:34N 46°41' W 003°08'1 0.2
2017-Nov-11 09:39N 46°41' W 003°07'  
2017-Nov-08 08:36N 46°19' W 002°09'1 8.4
2017-Nov-08 08:30N 46°20' W 002°09'5 8.5
2017-Nov-08 07:52N 46°25' W 002°11'4 8.5
2017-Nov-08 07:28N 46°28' W 002°13'4 8.5
2017-Nov-08 07:00N 46°32' W 002°14'4 8.6
2017-Nov-08 06:28N 46°36' W 002°16'  
Track history (hours):
 
Tides and Currents Weather Stations Pressure Air Temp Water Temp Dewpoint Dewpoint Depression Visibility Wind Speed Wind Dir Waves Ship Positions

F/V Argentario

Last reported at 2017-Nov-17 12:46 UTC. Time now 2017-Nov-20 19:14 UTC.
Position N 46°44' W 002°43'.

Length 22 m; draft 3.4 m.

Type: Fishing. MMSI: 228975000.

Date/timePositionNaut miles runAvg speedWind from/ knotsBaromVisibWave heightAir tempDewpointWater temp
2017-Nov-17 12:46N 46°44' W 002°43'2710.1
2017-Nov-17 10:05N 46°43' W 003°23'4 9.6
2017-Nov-17 09:41N 46°43' W 003°28'0 1.6
2017-Nov-17 09:26N 46°43' W 003°29'1 2.1
2017-Nov-17 08:52N 46°43' W 003°31'1 0.3
2017-Nov-17 06:50N 46°42' W 003°31'1 1.7
2017-Nov-17 06:03N 46°42' W 003°33'1 3.6
2017-Nov-17 05:53N 46°42' W 003°33'0 0.2
2017-Nov-17 05:28N 46°43' W 003°33'0 0.0
2017-Nov-17 04:23N 46°42' W 003°33'0 0.0
2017-Nov-17 03:46N 46°42' W 003°33'0 0.0
2017-Nov-17 03:29N 46°42' W 003°33'0 0.0
2017-Nov-17 03:00N 46°42' W 003°33'0 0.0
2017-Nov-17 02:28N 46°42' W 003°33'0 0.0
2017-Nov-17 01:55N 46°43' W 003°33'0 0.1
2017-Nov-17 01:29N 46°43' W 003°33'0 0.2
2017-Nov-17 00:59N 46°43' W 003°33'0 0.0
2017-Nov-17 00:29N 46°43' W 003°33'0 0.0
2017-Nov-16 22:04N 46°43' W 003°33'0 0.1
2017-Nov-16 22:00N 46°43' W 003°33'0 0.0
2017-Nov-16 21:30N 46°43' W 003°33'0 0.0
2017-Nov-16 20:48N 46°43' W 003°33'0 0.0
2017-Nov-16 20:00N 46°43' W 003°33'0 0.1
2017-Nov-16 19:28N 46°43' W 003°33'0 0.0
2017-Nov-16 18:50N 46°43' W 003°33'0 0.0
2017-Nov-16 18:20N 46°43' W 003°33'0 0.0
2017-Nov-16 18:00N 46°43' W 003°33'0 0.0
2017-Nov-16 16:44N 46°43' W 003°33'0 0.1
2017-Nov-16 16:28N 46°43' W 003°33'0 0.0
2017-Nov-16 15:33N 46°42' W 003°33'0 0.1
2017-Nov-16 15:27N 46°42' W 003°33'0 0.0
2017-Nov-16 15:00N 46°42' W 003°33'0 0.2
2017-Nov-16 14:30N 46°43' W 003°33'0 0.3
2017-Nov-16 13:15N 46°43' W 003°33'2 7.5
2017-Nov-16 13:00N 46°43' W 003°30'2 2.3
2017-Nov-16 12:18N 46°42' W 003°31'2 8.4
2017-Nov-16 12:01N 46°39' W 003°31'1 1.5
2017-Nov-16 11:29N 46°39' W 003°32'1 1.5
2017-Nov-16 10:57N 46°39' W 003°33'1 1.3
2017-Nov-16 10:29N 46°39' W 003°34'0 0.9
2017-Nov-16 10:00N 46°39' W 003°35'1 1.2
2017-Nov-16 09:29N 46°39' W 003°36'3 5.8
2017-Nov-16 08:59N 46°38' W 003°31'5 1.4
2017-Nov-16 05:11N 46°39' W 003°24'1 4.5
2017-Nov-16 04:52N 46°39' W 003°22'2 4.6
2017-Nov-16 04:28N 46°40' W 003°19'3 4.9
2017-Nov-16 03:45N 46°40' W 003°14'2 6.4
2017-Nov-16 03:28N 46°40' W 003°11'3 6.4
2017-Nov-16 02:57N 46°41' W 003°07'3 6.0
2017-Nov-16 02:30N 46°41' W 003°03'3 6.1
2017-Nov-16 02:00N 46°42' W 002°58'3 6.1
2017-Nov-16 01:30N 46°42' W 002°54'3 6.1
2017-Nov-16 01:00N 46°42' W 002°50'3 5.8
2017-Nov-16 00:31N 46°43' W 002°45'3 6.1
2017-Nov-16 00:00N 46°43' W 002°41'3 5.8
2017-Nov-15 23:30N 46°43' W 002°37'3 6.1
2017-Nov-15 23:00N 46°44' W 002°32'3 6.4
2017-Nov-15 22:31N 46°44' W 002°28'4 7.0
2017-Nov-15 22:01N 46°45' W 002°23'2 3.4
2017-Nov-15 21:30N 46°44' W 002°21'0 0.0
2017-Nov-15 21:01N 46°44' W 002°21'0 0.0
2017-Nov-15 20:29N 46°44' W 002°21'0 0.0
2017-Nov-15 19:56N 46°44' W 002°21'0 0.0
2017-Nov-15 19:29N 46°44' W 002°21'0 0.0
2017-Nov-15 19:01N 46°44' W 002°21'0 0.0
2017-Nov-15 18:30N 46°44' W 002°21'0 0.0
2017-Nov-15 16:58N 46°44' W 002°21'2 3.2
2017-Nov-15 16:29N 46°45' W 002°22'40 9.4
2017-Nov-15 12:15N 46°40' W 003°20'11 6.7
2017-Nov-15 10:41N 46°38' W 003°35'1 6.4
2017-Nov-15 10:28N 46°38' W 003°33'3 5.4
2017-Nov-15 10:00N 46°36' W 003°31'8 9.8
2017-Nov-15 09:14N 46°28' W 003°32'0 1.9
2017-Nov-15 09:00N 46°28' W 003°33'1 1.3
2017-Nov-15 08:13N 46°28' W 003°34'2 0.5
2017-Nov-15 04:42N 46°28' W 003°37'2 0.2
2017-Nov-14 20:59N 46°29' W 003°35'16 1.4
2017-Nov-14 09:33N 46°45' W 003°29'4 1.0
2017-Nov-14 06:00N 46°43' W 003°33'54 1.9
2017-Nov-13 01:29N 46°27' W 002°19'3 7.0
2017-Nov-13 01:00N 46°27' W 002°14'3 6.9
2017-Nov-13 00:31N 46°27' W 002°09'3 6.8
2017-Nov-13 00:01N 46°28' W 002°04'3 6.7
2017-Nov-12 23:30N 46°28' W 001°59'3 6.5
2017-Nov-12 23:01N 46°28' W 001°55'3 6.4
2017-Nov-12 22:31N 46°29' W 001°50'2 4.4
2017-Nov-12 22:00N 46°30' W 001°47'0 0.0
2017-Nov-12 21:31N 46°30' W 001°47'0 0.4
2017-Nov-12 21:01N 46°30' W 001°47'0 0.6
2017-Nov-12 20:30N 46°30' W 001°48'3 6.9
2017-Nov-12 20:00N 46°28' W 001°52'510.0
2017-Nov-12 19:30N 46°28' W 001°60'5 9.9
2017-Nov-12 19:00N 46°28' W 002°07'5 9.8
2017-Nov-12 18:30N 46°28' W 002°14'38 1.4
2017-Nov-11 15:47N 46°37' W 003°07'0 0.0
2017-Nov-11 15:29N 46°37' W 003°07'4 5.2
2017-Nov-11 14:46N 46°40' W 003°09'1 0.5
2017-Nov-11 13:34N 46°41' W 003°08'1 0.2
2017-Nov-11 09:39N 46°41' W 003°07'  
2017-Nov-08 08:36N 46°19' W 002°09'1 8.4
2017-Nov-08 08:30N 46°20' W 002°09'5 8.5
2017-Nov-08 07:52N 46°25' W 002°11'4 8.5
2017-Nov-08 07:28N 46°28' W 002°13'4 8.5
2017-Nov-08 07:00N 46°32' W 002°14'4 8.6
2017-Nov-08 06:28N 46°36' W 002°16'  

Dump ship's entire track history